createdAt,value
2019-03-16T00:00:56.115Z,96723.98
2019-03-16T00:03:22.958Z,96731.28
2019-03-16T00:05:49.509Z,96742.67
2019-03-16T00:08:16.090Z,96752.70
2019-03-16T00:10:42.830Z,96749.44
2019-03-16T00:13:09.467Z,96754.83
2019-03-16T00:15:36.078Z,96740.73
2019-03-16T00:18:02.816Z,96753.77
2019-03-16T00:20:29.682Z,96751.83
2019-03-16T00:22:56.331Z,96752.34
2019-03-16T00:25:23.179Z,96737.16
2019-03-16T00:27:49.724Z,96748.77
2019-03-16T00:30:16.368Z,96748.77
2019-03-16T00:32:43.219Z,96752.71
2019-03-16T00:35:09.878Z,96747.27
2019-03-16T00:37:37.410Z,96751.09
2019-03-16T00:40:04.646Z,96755.13
2019-03-16T00:42:31.315Z,96745.13
2019-03-16T00:44:58.045Z,96751.64
2019-03-16T00:47:24.724Z,96755.42
2019-03-16T00:49:51.401Z,96741.32
2019-03-16T00:52:17.962Z,96746.48
2019-03-16T00:54:44.682Z,96737.77
2019-03-16T00:57:11.292Z,96748.91
2019-03-16T00:59:41.089Z,96736.67
2019-03-16T01:02:07.757Z,96750.48
2019-03-16T01:04:34.425Z,96737.45
2019-03-16T01:07:01.193Z,96750.48
2019-03-16T01:09:27.941Z,96751.36
2019-03-16T01:11:54.595Z,96762.45
2019-03-16T01:14:21.302Z,96752.94
2019-03-16T01:16:48.017Z,96759.42
2019-03-16T01:19:14.688Z,96751.03
2019-03-16T01:21:41.514Z,96753.74
2019-03-16T01:24:08.213Z,96754.30
2019-03-16T01:26:34.772Z,96752.09
2019-03-16T01:29:01.467Z,96768.33
2019-03-16T01:31:28.241Z,96761.00
2019-03-16T01:33:55.085Z,96769.42
2019-03-16T01:36:21.643Z,96759.65
2019-03-16T01:38:48.367Z,96769.39
2019-03-16T01:41:14.928Z,96776.17
2019-03-16T01:43:41.570Z,96774.78
2019-03-16T01:46:08.290Z,96784.85
2019-03-16T01:48:34.933Z,96784.30
2019-03-16T01:51:01.710Z,96785.40
2019-03-16T01:53:28.313Z,96779.14
2019-03-16T01:55:54.997Z,96771.84
2019-03-16T01:58:21.711Z,96762.10
2019-03-16T02:00:48.304Z,96780.84
2019-03-16T02:03:14.847Z,96774.39
2019-03-16T02:05:41.492Z,96788.75
2019-03-16T02:08:08.422Z,96789.84
2019-03-16T02:10:34.984Z,96785.75
2019-03-16T02:13:01.661Z,96777.69
2019-03-16T02:15:28.221Z,96798.03
2019-03-16T02:17:54.996Z,96790.97
2019-03-16T02:20:21.546Z,96793.69
2019-03-16T02:22:48.291Z,96801.53
2019-03-16T02:25:14.945Z,96802.36
2019-03-16T02:27:42.690Z,96802.59
2019-03-16T02:30:09.894Z,96799.08
2019-03-16T02:32:36.531Z,96810.14
2019-03-16T02:35:04.218Z,96806.59
2019-03-16T02:37:30.888Z,96810.66
2019-03-16T02:39:57.457Z,96811.98
2019-03-16T02:42:24.283Z,96813.34
2019-03-16T02:44:50.984Z,96814.96
2019-03-16T02:47:17.789Z,96824.42
2019-03-16T02:49:44.595Z,96819.77
2019-03-16T02:52:11.139Z,96820.06
2019-03-16T02:54:37.952Z,96823.58
2019-03-16T02:57:04.645Z,96821.67
2019-03-16T02:59:31.300Z,96824.94
2019-03-16T03:01:58.036Z,96815.48
2019-03-16T03:04:24.582Z,96819.60
2019-03-16T03:06:51.208Z,96834.80
2019-03-16T03:09:17.731Z,96829.14
2019-03-16T03:11:44.623Z,96835.63
2019-03-16T03:14:11.164Z,96836.19
2019-03-16T03:16:37.857Z,96841.08
2019-03-16T03:19:04.542Z,96831.34
2019-03-16T03:21:31.387Z,96835.89
2019-03-16T03:23:57.901Z,96841.31
2019-03-16T03:26:24.495Z,96840.83
2019-03-16T03:28:51.041Z,96851.12
2019-03-16T03:31:17.668Z,96842.67
2019-03-16T03:33:58.846Z,96860.29
2019-03-16T03:36:12.914Z,96854.34
2019-03-16T03:38:39.444Z,96862.19
2019-03-16T03:41:06.324Z,96867.06
2019-03-16T03:43:33.051Z,96866.25
2019-03-16T03:45:59.699Z,96870.06
2019-03-16T03:48:26.377Z,96863.86
2019-03-16T03:50:53.111Z,96871.47
2019-03-16T03:53:19.645Z,96876.59
2019-03-16T03:55:46.320Z,96873.05
2019-03-16T03:58:12.976Z,96876.58
2019-03-16T04:00:39.599Z,96879.02
2019-03-16T04:03:06.395Z,96875.25
2019-03-16T04:05:33.014Z,96876.69
2019-03-16T04:07:59.906Z,96878.38
2019-03-16T04:10:26.564Z,96891.40
2019-03-16T04:12:53.191Z,96896.56
2019-03-16T04:15:19.796Z,96891.71
2019-03-16T04:17:46.550Z,96894.68
2019-03-16T04:20:13.408Z,96909.87
2019-03-16T04:22:40.136Z,96902.57
2019-03-16T04:25:06.943Z,96910.45
2019-03-16T04:27:33.502Z,96923.20
2019-03-16T04:30:00.028Z,96916.70
2019-03-16T04:32:26.549Z,96917.53
2019-03-16T04:34:53.099Z,96916.70
2019-03-16T04:37:20.009Z,96922.14
2019-03-16T04:39:46.620Z,96930.33
2019-03-16T04:42:13.345Z,96926.55
2019-03-16T04:44:39.927Z,96937.12
2019-03-16T04:47:06.656Z,96936.59
2019-03-16T04:49:33.361Z,96947.45
2019-03-16T04:52:00.307Z,96938.29
2019-03-16T04:54:27.315Z,96937.74
2019-03-16T04:56:53.869Z,96936.67
2019-03-16T04:59:20.644Z,96944.81
2019-03-16T05:01:47.183Z,96942.91
2019-03-16T05:04:13.825Z,96941.30
2019-03-16T05:06:40.488Z,96941.00
2019-03-16T05:09:07.019Z,96945.61
2019-03-16T05:11:33.545Z,96948.33
2019-03-16T05:14:00.080Z,96945.36
2019-03-16T05:16:26.922Z,96953.50
2019-03-16T05:18:53.539Z,96948.62
2019-03-16T05:21:20.296Z,96961.33
2019-03-16T05:23:46.812Z,96958.07
2019-03-16T05:26:13.489Z,96961.05
2019-03-16T05:28:40.009Z,96969.17
2019-03-16T05:31:06.545Z,96967.81
2019-03-16T05:33:33.479Z,96968.91
2019-03-16T05:36:00.014Z,96979.19
2019-03-16T05:38:26.646Z,96981.64
2019-03-16T05:40:53.220Z,96990.85
2019-03-16T05:43:19.980Z,96988.42
2019-03-16T05:45:46.626Z,96993.30
2019-03-16T05:48:13.342Z,96986.53
2019-03-16T05:50:39.878Z,96987.89
2019-03-16T05:53:06.419Z,96982.20
2019-03-16T05:55:32.984Z,96982.73
2019-03-16T05:57:59.547Z,96983.27
2019-03-16T06:00:26.163Z,96989.77
2019-03-16T06:02:52.704Z,96995.44
2019-03-16T06:05:19.284Z,96991.91
2019-03-16T06:07:45.947Z,97001.11
2019-03-16T06:10:12.742Z,97015.98
2019-03-16T06:12:39.462Z,97017.60
2019-03-16T06:15:06.301Z,97011.39
2019-03-16T06:17:33.087Z,97025.77
2019-03-16T06:19:59.907Z,97027.95
2019-03-16T06:22:26.750Z,97030.92
2019-03-16T06:24:53.289Z,97035.26
2019-03-16T06:27:19.886Z,97038.51
2019-03-16T06:29:46.502Z,97049.08
2019-03-16T06:32:12.969Z,97050.70
2019-03-16T06:34:39.697Z,97053.42
2019-03-16T06:37:06.229Z,97061.55
2019-03-16T06:39:32.757Z,97057.20
2019-03-16T06:41:59.427Z,97071.02
2019-03-16T06:44:25.972Z,97071.02
2019-03-16T06:46:52.565Z,97069.94
2019-03-16T06:49:19.309Z,97071.28
2019-03-16T06:51:45.994Z,97069.09
2019-03-16T06:54:13.619Z,97063.67
2019-03-16T06:56:40.472Z,97067.73
2019-03-16T06:59:15.588Z,97069.08
2019-03-16T07:01:42.328Z,97069.34
2019-03-16T07:04:09.144Z,97069.89
2019-03-16T07:06:35.712Z,97070.16
2019-03-16T07:09:04.206Z,97070.69
2019-03-16T07:11:30.731Z,97076.93
2019-03-16T07:13:57.359Z,97080.73
2019-03-16T07:16:24.001Z,97084.77
2019-03-16T07:18:58.822Z,97088.04
2019-03-16T07:21:19.148Z,97085.33
2019-03-16T07:23:45.876Z,97082.59
2019-03-16T07:26:15.106Z,97085.04
2019-03-16T07:28:41.084Z,97086.94
2019-03-16T07:31:07.666Z,97088.56
2019-03-16T07:33:34.193Z,97082.86
2019-03-16T07:36:00.987Z,97090.15
2019-03-16T07:38:27.658Z,97087.94
2019-03-16T07:40:54.218Z,97086.04
2019-03-16T07:43:21.875Z,97085.48
2019-03-16T07:45:48.439Z,97089.27
2019-03-16T07:48:14.961Z,97090.08
2019-03-16T07:50:41.504Z,97095.51
2019-03-16T07:53:08.034Z,97097.95
2019-03-16T07:55:35.728Z,97099.05
2019-03-16T07:58:02.276Z,97100.72
2019-03-16T08:00:28.885Z,97097.48
2019-03-16T08:02:55.409Z,97097.50
2019-03-16T08:05:22.095Z,97098.58
2019-03-16T08:07:48.605Z,97096.13
2019-03-16T08:10:15.244Z,97099.64
2019-03-16T08:12:42.045Z,97093.69
2019-03-16T08:15:08.674Z,97096.39
2019-03-16T08:17:35.331Z,97099.36
2019-03-16T08:20:01.972Z,97100.45
2019-03-16T08:22:28.675Z,97098.30
2019-03-16T08:24:55.335Z,97102.92
2019-03-16T08:27:21.866Z,97104.84
2019-03-16T08:29:48.375Z,97109.44
2019-03-16T08:32:14.981Z,97101.30
2019-03-16T08:34:41.525Z,97105.64
2019-03-16T08:37:08.149Z,97109.70
2019-03-16T08:39:34.669Z,97115.14
2019-03-16T08:42:01.215Z,97113.76
2019-03-16T08:44:27.893Z,97112.39
2019-03-16T08:46:54.565Z,97120.98
2019-03-16T08:49:22.809Z,97125.55
2019-03-16T08:51:50.123Z,97124.16
2019-03-16T08:54:16.849Z,97121.98
2019-03-16T08:56:45.533Z,97112.17
2019-03-16T08:59:12.328Z,97124.57
2019-03-16T09:01:38.868Z,97128.08
2019-03-16T09:04:05.731Z,97135.64
2019-03-16T09:06:32.242Z,97121.00
2019-03-16T09:08:59.668Z,97137.00
2019-03-16T09:11:26.328Z,97137.55
2019-03-16T09:13:52.984Z,97142.98
2019-03-16T09:16:19.725Z,97141.91
2019-03-16T09:18:46.466Z,97144.89
2019-03-16T09:21:13.217Z,97146.22
2019-03-16T09:23:39.880Z,97148.67
2019-03-16T09:26:07.497Z,97154.65
2019-03-16T09:28:34.220Z,97155.23
2019-03-16T09:31:00.883Z,97157.98
2019-03-16T09:33:27.608Z,97155.81
2019-03-16T09:35:54.390Z,97164.76
2019-03-16T09:38:20.902Z,97166.67
2019-03-16T09:40:47.551Z,97162.06
2019-03-16T09:43:14.176Z,97174.24
2019-03-16T09:45:40.870Z,97170.98
2019-03-16T09:48:07.491Z,97168.50
2019-03-16T09:50:34.128Z,97169.58
2019-03-16T09:53:00.791Z,97160.62
2019-03-16T09:55:27.624Z,97168.14
2019-03-16T09:57:54.147Z,97173.78
2019-03-16T10:00:21.117Z,97172.09
2019-03-16T10:02:47.634Z,97168.27
2019-03-16T10:05:14.417Z,97173.89
2019-03-16T10:07:41.201Z,97164.59
2019-03-16T10:10:08.114Z,97165.83
2019-03-16T10:12:34.853Z,97168.52
2019-03-16T10:15:01.645Z,97175.47
2019-03-16T10:17:28.313Z,97178.43
2019-03-16T10:19:54.832Z,97174.30
2019-03-16T10:22:21.375Z,97175.77
2019-03-16T10:24:48.075Z,97173.99
2019-03-16T10:27:14.605Z,97174.68
2019-03-16T10:29:41.276Z,97175.59
2019-03-16T10:32:07.919Z,97164.48
2019-03-16T10:34:34.578Z,97176.03
2019-03-16T10:37:01.218Z,97167.36
2019-03-16T10:39:27.954Z,97169.88
2019-03-16T10:41:54.506Z,97162.83
2019-03-16T10:44:21.030Z,97173.41
2019-03-16T10:46:47.608Z,97178.88
2019-03-16T10:49:14.215Z,97172.08
2019-03-16T10:51:40.776Z,97177.67
2019-03-16T10:54:07.403Z,97186.41
2019-03-16T10:56:34.205Z,97196.06
2019-03-16T10:59:00.716Z,97179.33
2019-03-16T11:01:27.358Z,97189.68
2019-03-16T11:03:53.878Z,97194.59
2019-03-16T11:06:20.423Z,97194.67
2019-03-16T11:08:46.978Z,97199.88
2019-03-16T11:11:13.559Z,97194.49
2019-03-16T11:13:41.766Z,97203.58
2019-03-16T11:16:08.396Z,97218.61
2019-03-16T11:18:34.986Z,97213.59
2019-03-16T11:21:01.525Z,97213.73
2019-03-16T11:23:28.053Z,97214.37
2019-03-16T11:25:54.602Z,97214.95
2019-03-16T11:28:21.127Z,97220.94
2019-03-16T11:30:47.693Z,97220.68
2019-03-16T11:33:14.400Z,97215.58
2019-03-16T11:35:41.082Z,97216.41
2019-03-16T11:38:07.791Z,97210.49
2019-03-16T11:40:34.447Z,97206.92
2019-03-16T11:43:00.985Z,97201.72
2019-03-16T11:45:27.649Z,97209.22
2019-03-16T11:47:54.173Z,97196.81
2019-03-16T11:50:20.764Z,97188.14
2019-03-16T11:52:47.520Z,97179.48
2019-03-16T11:55:14.169Z,97165.47
2019-03-16T11:57:40.917Z,97165.66
2019-03-16T12:00:08.060Z,97157.07
2019-03-16T12:02:34.689Z,97160.29
2019-03-16T12:05:01.207Z,97160.16
2019-03-16T12:07:27.957Z,97158.08
2019-03-16T12:09:54.706Z,97148.36
2019-03-16T12:12:21.328Z,97155.18
2019-03-16T12:14:47.984Z,97147.16
2019-03-16T12:17:14.643Z,97141.98
2019-03-16T12:19:41.178Z,97137.33
2019-03-16T12:22:07.878Z,97135.89
2019-03-16T12:24:34.426Z,97146.56
2019-03-16T12:27:01.115Z,97130.00
2019-03-16T12:29:33.903Z,97137.67
2019-03-16T12:31:56.092Z,97129.53
2019-03-16T12:34:22.715Z,97130.88
2019-03-16T12:36:49.342Z,97138.60
2019-03-16T12:39:15.976Z,97131.59
2019-03-16T12:41:42.526Z,97128.80
2019-03-16T12:44:09.209Z,97119.72
2019-03-16T12:46:35.717Z,97109.58
2019-03-16T12:49:02.629Z,97097.44
2019-03-16T12:51:29.136Z,97098.06
2019-03-16T12:53:55.754Z,97106.59
2019-03-16T12:56:22.417Z,97095.95
2019-03-16T12:58:49.005Z,97094.79
2019-03-16T13:01:15.574Z,97094.73
2019-03-16T13:03:42.253Z,97086.05
2019-03-16T13:06:08.863Z,97086.98
2019-03-16T13:08:35.493Z,97088.92
2019-03-16T13:11:02.170Z,97090.99
2019-03-16T13:13:28.679Z,97091.47
2019-03-16T13:15:55.318Z,97095.86
2019-03-16T13:18:21.842Z,97090.39
2019-03-16T13:20:48.361Z,97087.97
2019-03-16T13:23:15.083Z,97095.56
2019-03-16T13:25:41.593Z,97092.94
2019-03-16T13:28:08.287Z,97093.44
2019-03-16T13:30:34.967Z,97079.88
2019-03-16T13:33:02.214Z,97089.69
2019-03-16T13:35:28.720Z,97084.53
2019-03-16T13:37:55.423Z,97085.74
2019-03-16T13:40:21.941Z,97080.38
2019-03-16T13:42:48.630Z,97080.55
2019-03-16T13:45:15.533Z,97071.72
2019-03-16T13:47:42.074Z,97068.30
2019-03-16T13:50:09.867Z,97079.61
2019-03-16T13:52:36.682Z,97075.25
2019-03-16T13:55:03.679Z,97063.58
2019-03-16T13:57:30.790Z,97070.76
2019-03-16T13:59:57.297Z,97059.06
2019-03-16T14:02:23.826Z,97056.83
2019-03-16T14:04:50.370Z,97058.83
2019-03-16T14:07:17.128Z,97048.72
2019-03-16T14:09:43.742Z,97051.75
2019-03-16T14:12:10.318Z,97053.11
2019-03-16T14:14:37.282Z,97040.88
2019-03-16T14:17:03.911Z,97050.63
2019-03-16T14:19:30.683Z,97039.69
2019-03-16T14:21:57.299Z,97038.14
2019-03-16T14:24:24.888Z,97030.36
2019-03-16T14:26:52.005Z,97034.71
2019-03-16T14:29:18.642Z,97019.84
2019-03-16T14:31:45.433Z,97015.63
2019-03-16T14:34:12.091Z,97024.34
2019-03-16T14:36:38.817Z,97023.14
2019-03-16T14:39:06.500Z,97019.27
2019-03-16T14:41:33.301Z,97021.23
2019-03-16T14:44:00.116Z,97019.33
2019-03-16T14:46:26.649Z,97015.89
2019-03-16T14:48:53.356Z,97017.22
2019-03-16T14:51:20.320Z,97017.62
2019-03-16T14:53:47.177Z,97016.66
2019-03-16T14:56:13.907Z,97011.86
2019-03-16T14:58:40.543Z,97026.91
2019-03-16T15:01:07.260Z,97007.16
2019-03-16T15:03:33.927Z,97001.37
2019-03-16T15:06:00.580Z,97003.78
2019-03-16T15:08:27.115Z,96995.29
2019-03-16T15:10:53.796Z,96999.95
2019-03-16T15:13:20.497Z,96999.20
2019-03-16T15:15:47.020Z,96979.55
2019-03-16T15:18:13.731Z,96989.95
2019-03-16T15:20:40.349Z,96987.20
2019-03-16T15:23:06.887Z,96998.66
2019-03-16T15:25:33.551Z,96993.64
2019-03-16T15:28:00.087Z,96993.74
2019-03-16T15:30:26.882Z,96988.23
2019-03-16T15:32:53.462Z,96982.66
2019-03-16T15:35:19.986Z,96984.41
2019-03-16T15:37:46.647Z,96982.95
2019-03-16T15:40:13.495Z,96978.22
2019-03-16T15:42:40.120Z,96975.13
2019-03-16T15:45:09.629Z,96978.76
2019-03-16T15:47:36.140Z,96974.84
2019-03-16T15:50:03.370Z,96977.14
2019-03-16T15:52:30.061Z,96974.84
2019-03-16T15:54:56.621Z,96976.48
2019-03-16T15:57:23.190Z,96968.70
2019-03-16T15:59:49.909Z,96965.17
2019-03-16T16:02:16.658Z,96962.05
2019-03-16T16:04:43.342Z,96960.25
2019-03-16T16:07:10.033Z,96967.45
2019-03-16T16:09:36.609Z,96962.89
2019-03-16T16:12:03.212Z,96961.64
2019-03-16T16:14:29.958Z,96955.15
2019-03-16T16:16:56.594Z,96961.02
2019-03-16T16:19:23.230Z,96963.98
2019-03-16T16:21:50.050Z,96956.05
2019-03-16T16:24:16.591Z,96960.76
2019-03-16T16:26:43.276Z,96951.16
2019-03-16T16:29:09.807Z,96944.29
2019-03-16T16:31:36.675Z,96941.38
2019-03-16T16:34:03.320Z,96944.81
2019-03-16T16:36:29.962Z,96943.05
2019-03-16T16:38:56.523Z,96940.56
2019-03-16T16:41:25.464Z,96945.00
2019-03-16T16:43:51.566Z,96951.16
2019-03-16T16:46:18.227Z,96953.47
2019-03-16T16:48:44.830Z,96946.59
2019-03-16T16:51:11.485Z,96947.28
2019-03-16T16:53:38.061Z,96951.38
2019-03-16T16:56:04.824Z,96954.53
2019-03-16T16:58:31.345Z,96952.33
2019-03-16T17:00:58.084Z,96948.41
2019-03-16T17:03:24.596Z,96944.25
2019-03-16T17:05:51.232Z,96942.50
2019-03-16T17:08:17.872Z,96936.46
2019-03-16T17:10:44.631Z,96937.53
2019-03-16T17:13:11.371Z,96937.76
2019-03-16T17:15:37.959Z,96932.65
2019-03-16T17:18:04.704Z,96939.70
2019-03-16T17:20:31.382Z,96933.41
2019-03-16T17:22:58.089Z,96933.07
2019-03-16T17:25:24.833Z,96932.76
2019-03-16T17:27:54.175Z,96926.41
2019-03-16T17:30:19.951Z,96929.02
2019-03-16T17:32:47.743Z,96923.98
2019-03-16T17:35:14.353Z,96926.84
2019-03-16T17:37:41.190Z,96926.41
2019-03-16T17:40:08.085Z,96924.63
2019-03-16T17:42:34.783Z,96917.11
2019-03-16T17:45:01.478Z,96911.51
2019-03-16T17:47:28.106Z,96907.30
2019-03-16T17:49:54.682Z,96900.88
2019-03-16T17:52:21.358Z,96887.47
2019-03-16T17:54:48.056Z,96880.23
2019-03-16T17:57:14.568Z,96890.58
2019-03-16T17:59:41.235Z,96890.39
2019-03-16T18:02:07.763Z,96879.91
2019-03-16T18:04:34.589Z,96880.52
2019-03-16T18:07:01.333Z,96880.29
2019-03-16T18:09:28.362Z,96880.59
2019-03-16T18:11:55.089Z,96889.28
2019-03-16T18:14:21.691Z,96888.50
2019-03-16T18:16:48.351Z,96888.80
2019-03-16T18:19:14.873Z,96891.25
2019-03-16T18:21:41.400Z,96895.08
2019-03-16T18:24:07.926Z,96895.35
2019-03-16T18:26:34.545Z,96893.75
2019-03-16T18:29:01.061Z,96887.83
2019-03-16T18:31:27.629Z,96888.68
2019-03-16T18:33:54.446Z,96887.06
2019-03-16T18:36:20.968Z,96888.97
2019-03-16T18:38:47.636Z,96888.44
2019-03-16T18:41:14.313Z,96884.39
2019-03-16T18:43:40.925Z,96883.31
2019-03-16T18:46:07.458Z,96883.88
2019-03-16T18:48:34.031Z,96885.23
2019-03-16T18:51:00.565Z,96889.30
2019-03-16T18:53:27.253Z,96893.34
2019-03-16T18:55:53.898Z,96896.61
2019-03-16T18:58:20.544Z,96899.84
2019-03-16T19:00:47.171Z,96903.62
2019-03-16T19:03:13.721Z,96893.09
2019-03-16T19:05:40.461Z,96889.05
2019-03-16T19:08:07.081Z,96892.55
2019-03-16T19:10:33.725Z,96901.20
2019-03-16T19:13:00.429Z,96899.58
2019-03-16T19:15:27.168Z,96892.02
2019-03-16T19:17:59.003Z,96889.05
2019-03-16T19:20:22.249Z,96885.25
2019-03-16T19:22:48.900Z,96878.27
2019-03-16T19:25:15.607Z,96883.09
2019-03-16T19:27:42.227Z,96883.63
2019-03-16T19:30:10.738Z,96883.07
2019-03-16T19:32:37.870Z,96880.64
2019-03-16T19:35:04.642Z,96876.33
2019-03-16T19:37:31.303Z,96875.23
2019-03-16T19:39:57.843Z,96883.03
2019-03-16T19:42:24.513Z,96889.48
2019-03-16T19:44:51.133Z,96878.41
2019-03-16T19:47:17.642Z,96882.19
2019-03-16T19:49:44.148Z,96884.32
2019-03-16T19:52:10.800Z,96889.97
2019-03-16T19:54:37.305Z,96890.76
2019-03-16T19:57:15.268Z,96891.27
2019-03-16T19:59:32.287Z,96878.06
2019-03-16T20:01:58.839Z,96875.12
2019-03-16T20:04:35.506Z,96872.66
2019-03-16T20:06:54.120Z,96875.55
2019-03-16T20:09:20.781Z,96875.55
2019-03-16T20:11:47.305Z,96876.58
2019-03-16T20:14:14.146Z,96878.46
2019-03-16T20:16:40.798Z,96880.60
2019-03-16T20:19:07.572Z,96877.91
2019-03-16T20:21:34.191Z,96879.78
2019-03-16T20:24:00.976Z,96879.20
2019-03-16T20:26:27.693Z,96878.94
2019-03-16T20:28:54.215Z,96881.33
2019-03-16T20:31:20.881Z,96875.66
2019-03-16T20:33:47.384Z,96871.06
2019-03-16T20:36:14.168Z,96874.56
2019-03-16T20:38:40.751Z,96871.30
2019-03-16T20:41:07.410Z,96868.02
2019-03-16T20:43:34.029Z,96867.48
2019-03-16T20:46:00.674Z,96867.25
2019-03-16T20:48:27.212Z,96864.59
2019-03-16T20:50:53.883Z,96866.22
2019-03-16T20:53:20.635Z,96870.22
2019-03-16T20:55:47.549Z,96877.42
2019-03-16T20:58:14.269Z,96873.09
2019-03-16T21:00:40.953Z,96883.55
2019-03-16T21:03:16.172Z,96882.67
2019-03-16T21:05:36.331Z,96891.48
2019-03-16T21:08:03.092Z,96895.98
2019-03-16T21:10:30.737Z,96883.81
2019-03-16T21:12:57.747Z,96889.65
2019-03-16T21:15:24.518Z,96888.81
2019-03-16T21:17:51.327Z,96885.02
2019-03-16T21:20:18.031Z,96883.64
2019-03-16T21:22:44.961Z,96886.50
2019-03-16T21:25:14.580Z,96891.29
2019-03-16T21:27:41.340Z,96884.52
2019-03-16T21:30:10.379Z,96892.02
2019-03-16T21:32:37.135Z,96886.06
2019-03-16T21:35:05.107Z,96887.62
2019-03-16T21:37:32.071Z,96885.97
2019-03-16T21:39:58.710Z,96875.45
2019-03-16T21:42:25.538Z,96879.17
2019-03-16T21:44:52.318Z,96878.33
2019-03-16T21:47:19.218Z,96875.89
2019-03-16T21:49:45.966Z,96868.59
2019-03-16T21:52:12.697Z,96871.21
2019-03-16T21:54:39.395Z,96868.75
2019-03-16T21:57:06.060Z,96871.40
2019-03-16T21:59:32.783Z,96871.12
2019-03-16T22:01:59.449Z,96868.65
2019-03-16T22:04:26.105Z,96858.16
2019-03-16T22:06:53.001Z,96855.45
2019-03-16T22:09:19.680Z,96857.00
2019-03-16T22:11:46.482Z,96851.98
2019-03-16T22:14:13.177Z,96847.89
2019-03-16T22:16:39.832Z,96846.48
2019-03-16T22:19:06.592Z,96849.17
2019-03-16T22:21:33.492Z,96848.05
2019-03-16T22:24:00.305Z,96847.48
2019-03-16T22:26:28.118Z,96842.11
2019-03-16T22:28:54.798Z,96846.91
2019-03-16T22:31:22.054Z,96842.61
2019-03-16T22:33:54.278Z,96842.30
2019-03-16T22:36:17.686Z,96837.95
2019-03-16T22:38:44.366Z,96836.05
2019-03-16T22:41:11.067Z,96835.20
2019-03-16T22:43:37.713Z,96842.12
2019-03-16T22:46:04.342Z,96837.21
2019-03-16T22:48:31.032Z,96835.84
2019-03-16T22:50:57.580Z,96837.95
2019-03-16T22:53:24.232Z,96839.50
2019-03-16T22:55:50.986Z,96835.97
2019-03-16T22:58:17.495Z,96831.63
2019-03-16T23:00:45.243Z,96835.33
2019-03-16T23:03:12.068Z,96833.95
2019-03-16T23:05:38.735Z,96827.98
2019-03-16T23:08:05.393Z,96829.56
2019-03-16T23:10:32.079Z,96823.39
2019-03-16T23:12:58.760Z,96821.48
2019-03-16T23:15:25.428Z,96811.57
2019-03-16T23:17:52.954Z,96810.17
2019-03-16T23:20:19.743Z,96810.98
2019-03-16T23:22:46.345Z,96802.59
2019-03-16T23:25:13.338Z,96804.11
2019-03-16T23:27:39.869Z,96802.90
2019-03-16T23:30:06.706Z,96799.25
2019-03-16T23:32:33.378Z,96797.94
2019-03-16T23:35:00.160Z,96786.52
2019-03-16T23:37:26.782Z,96789.20
2019-03-16T23:39:53.307Z,96784.83
2019-03-16T23:42:20.008Z,96787.86
2019-03-16T23:44:46.776Z,96795.41
2019-03-16T23:47:13.393Z,96795.69
2019-03-16T23:49:40.075Z,96790.00
2019-03-16T23:52:06.725Z,96789.00
2019-03-16T23:54:34.434Z,96798.34
2019-03-16T23:57:01.064Z,96795.62
2019-03-16T23:59:27.577Z,96788.36
